Time;durP1;ratioP1;P1;durP2;ratioP2;P2;SDS_P1;SDS_P2;PMS_P1;PMS_P2;Temp;Humidity;BMP_temperature;BMP_pressure;BME280_temperature;BME280_humidity;BME280_pressure;Samples;Min_cycle;Max_cycle;Signal;HPM_P1;HPM_P2
2023/07/03 00:00:26;;;;;;;12.10;3.75;;;;;;;;;;4943960;28;20039;-38
2023/07/03 00:02:52;;;;;;;12.35;4.95;;;;;;;;;;4946981;28;20034;-38
2023/07/03 00:05:18;;;;;;;9.57;4.68;;;;;;;;;;4946699;28;20077;-39
2023/07/03 00:07:46;;;;;;;11.20;4.45;;;;;;;;;;4951208;28;20096;-38
2023/07/03 00:10:12;;;;;;;11.55;4.82;;;;;;;;;;4951885;28;20026;-38
2023/07/03 00:12:37;;;;;;;17.40;4.30;;;;;;;;;;4960126;28;20030;-39
2023/07/03 00:15:03;;;;;;;10.57;4.00;;;;;;;;;;4949357;28;20038;-38
2023/07/03 00:17:28;;;;;;;12.38;4.22;;;;;;;;;;4950534;28;20041;-38
2023/07/03 00:19:54;;;;;;;11.32;4.88;;;;;;;;;;4948142;28;20529;-38
2023/07/03 00:22:20;;;;;;;16.15;3.80;;;;;;;;;;4962453;28;20084;-41
2023/07/03 00:24:46;;;;;;;16.67;4.47;;;;;;;;;;4945617;28;20113;-39
2023/07/03 00:27:11;;;;;;;15.90;4.30;;;;;;;;;;4948854;28;20123;-39
2023/07/03 00:29:37;;;;;;;16.17;4.18;;;;;;;;;;4952201;28;20022;-39
2023/07/03 00:32:02;;;;;;;13.55;4.20;;;;;;;;;;4952934;28;20062;-38
2023/07/03 00:34:28;;;;;;;11.60;4.28;;;;;;;;;;4951416;28;20035;-39
2023/07/03 00:36:54;;;;;;;12.38;4.50;;;;;;;;;;4974908;28;20022;-38
2023/07/03 00:39:19;;;;;;;7.10;3.28;;;;;;;;;;4954880;28;20117;-39
2023/07/03 00:41:45;;;;;;;12.05;4.35;;;;;;;;;;4962575;28;20034;-41
2023/07/03 00:44:11;;;;;;;10.82;3.72;;;;;;;;;;4963940;28;20133;-39
2023/07/03 00:46:38;;;;;;;9.38;4.30;;;;;;;;;;4966650;28;20152;-39
2023/07/03 00:49:04;;;;;;;9.32;4.28;;;;;;;;;;4963236;28;20739;-38
2023/07/03 00:51:30;;;;;;;9.52;3.08;;;;;;;;;;4952462;28;20022;-40
2023/07/03 00:53:55;;;;;;;9.70;4.78;;;;;;;;;;4962445;28;20042;-38
2023/07/03 00:56:20;;;;;;;10.43;4.13;;;;;;;;;;4944901;28;20037;-38
2023/07/03 00:58:46;;;;;;;11.65;4.93;;;;;;;;;;4951846;28;20508;-39
2023/07/03 01:01:23;;;;;;;12.07;3.63;;;;;;;;;;4950587;28;20057;-39
2023/07/03 01:03:56;;;;;;;11.60;4.03;;;;;;;;;;4969286;28;20022;-38
2023/07/03 01:06:23;;;;;;;14.65;4.70;;;;;;;;;;4963715;28;20029;-39
2023/07/03 01:08:52;;;;;;;20.67;5.38;;;;;;;;;;4959870;28;20022;-38
2023/07/03 01:11:19;;;;;;;13.00;4.80;;;;;;;;;;4967858;28;20015;-39
2023/07/03 01:13:45;;;;;;;11.70;4.68;;;;;;;;;;4946194;28;20034;-38
2023/07/03 01:16:11;;;;;;;11.00;4.30;;;;;;;;;;4962695;28;20022;-38
2023/07/03 01:18:36;;;;;;;11.02;3.90;;;;;;;;;;4962348;28;20030;-38
2023/07/03 01:21:11;;;;;;;11.38;4.47;;;;;;;;;;4959882;28;20474;-38
2023/07/03 01:23:39;;;;;;;9.82;4.18;;;;;;;;;;4955467;28;20035;-40
2023/07/03 01:26:06;;;;;;;13.40;4.55;;;;;;;;;;4961706;28;20030;-39
2023/07/03 01:28:33;;;;;;;6.28;2.25;;;;;;;;;;4960450;28;20023;-38
2023/07/03 01:30:59;;;;;;;7.03;2.83;;;;;;;;;;4957154;28;20038;-42
2023/07/03 01:33:30;;;;;;;8.68;3.97;;;;;;;;;;4963276;28;20399;-38
2023/07/03 01:35:56;;;;;;;10.48;4.68;;;;;;;;;;4951610;28;20448;-38
2023/07/03 01:38:23;;;;;;;11.60;3.92;;;;;;;;;;4967590;28;20042;-38
2023/07/03 01:40:48;;;;;;;12.02;4.10;;;;;;;;;;4944979;28;20130;-39
2023/07/03 01:43:14;;;;;;;9.07;4.30;;;;;;;;;;4951232;28;20027;-39
2023/07/03 01:45:44;;;;;;;11.63;4.40;;;;;;;;;;4948543;28;20092;-40
2023/07/03 01:48:09;;;;;;;8.23;3.78;;;;;;;;;;4961758;28;20077;-39
2023/07/03 01:50:35;;;;;;;11.18;4.80;;;;;;;;;;4957604;28;20417;-38
2023/07/03 01:53:05;;;;;;;11.07;4.20;;;;;;;;;;4957664;28;20030;-38
2023/07/03 01:55:49;;;;;;;8.75;3.72;;;;;;;;;;4958542;28;20042;-39
2023/07/03 01:58:29;;;;;;;16.35;5.22;;;;;;;;;;4963303;28;21215;-39
2023/07/03 02:00:56;;;;;;;10.25;4.25;;;;;;;;;;4952911;28;20027;-39
2023/07/03 02:03:41;;;;;;;9.82;3.90;;;;;;;;;;4963535;28;20053;-41
2023/07/03 02:06:09;;;;;;;9.88;4.10;;;;;;;;;;4963434;28;20026;-39
2023/07/03 02:08:35;;;;;;;10.90;4.13;;;;;;;;;;4945749;28;20043;-40
2023/07/03 02:11:01;;;;;;;12.70;4.30;;;;;;;;;;4960773;28;20027;-39
2023/07/03 02:13:26;;;;;;;14.07;4.55;;;;;;;;;;4973347;28;20114;-38
2023/07/03 02:15:51;;;;;;;10.65;4.57;;;;;;;;;;4949706;28;20540;-38
2023/07/03 02:18:20;;;;;;;10.38;4.40;;;;;;;;;;4951061;28;20059;-39
2023/07/03 02:20:46;;;;;;;14.50;4.25;;;;;;;;;;4947347;28;20035;-41
2023/07/03 02:23:12;;;;;;;11.70;3.90;;;;;;;;;;4963614;28;20055;-38
2023/07/03 02:25:37;;;;;;;7.45;3.78;;;;;;;;;;4963371;28;20061;-39
2023/07/03 02:28:03;;;;;;;11.60;4.13;;;;;;;;;;4950978;28;20027;-40
2023/07/03 02:30:29;;;;;;;6.68;2.33;;;;;;;;;;4956097;28;20023;-39
2023/07/03 02:32:54;;;;;;;11.88;4.60;;;;;;;;;;4962977;28;20030;-39
2023/07/03 02:35:19;;;;;;;12.38;5.13;;;;;;;;;;4949509;28;20031;-39
2023/07/03 02:37:45;;;;;;;8.27;3.88;;;;;;;;;;4952020;28;20041;-39
2023/07/03 02:40:13;;;;;;;13.15;3.83;;;;;;;;;;4946828;28;20126;-39
2023/07/03 02:42:38;;;;;;;8.57;4.65;;;;;;;;;;4951464;28;20031;-38
2023/07/03 02:45:04;;;;;;;14.15;4.10;;;;;;;;;;4969103;28;20388;-39
2023/07/03 02:47:32;;;;;;;10.35;4.30;;;;;;;;;;4947043;28;20042;-39
2023/07/03 02:49:57;;;;;;;12.23;4.40;;;;;;;;;;4949246;28;20022;-39
2023/07/03 02:52:23;;;;;;;14.73;4.43;;;;;;;;;;4952648;28;20033;-39
2023/07/03 02:54:48;;;;;;;9.43;4.20;;;;;;;;;;4963286;28;20508;-39
2023/07/03 02:57:14;;;;;;;7.82;2.97;;;;;;;;;;4959015;28;20018;-39
2023/07/03 02:59:39;;;;;;;10.40;4.25;;;;;;;;;;4944915;28;20109;-39
2023/07/03 03:02:06;;;;;;;7.53;4.10;;;;;;;;;;4964339;28;20397;-38
2023/07/03 03:04:32;;;;;;;14.30;4.03;;;;;;;;;;4947590;28;20022;-39
2023/07/03 03:06:57;;;;;;;11.65;5.22;;;;;;;;;;4949273;28;20049;-38
2023/07/03 03:09:23;;;;;;;9.32;4.25;;;;;;;;;;4949895;28;20031;-39
2023/07/03 03:11:48;;;;;;;12.68;4.60;;;;;;;;;;4944307;28;20023;-39
2023/07/03 03:14:14;;;;;;;12.95;4.55;;;;;;;;;;4951999;28;20034;-39
2023/07/03 03:16:39;;;;;;;9.05;4.50;;;;;;;;;;4977492;28;20047;-39
2023/07/03 03:19:05;;;;;;;10.65;3.92;;;;;;;;;;4951880;28;20023;-39
2023/07/03 03:21:30;;;;;;;9.65;3.47;;;;;;;;;;4958559;28;20081;-39
2023/07/03 03:23:55;;;;;;;10.60;3.92;;;;;;;;;;4957793;28;20557;-39
2023/07/03 03:26:21;;;;;;;12.75;4.60;;;;;;;;;;4951926;28;20630;-38
2023/07/03 03:28:46;;;;;;;10.50;4.13;;;;;;;;;;4951901;28;20026;-38
2023/07/03 03:31:12;;;;;;;11.77;4.60;;;;;;;;;;4954513;28;20009;-40
2023/07/03 03:33:37;;;;;;;8.43;4.70;;;;;;;;;;4957473;28;20031;-38
2023/07/03 03:36:03;;;;;;;11.52;4.28;;;;;;;;;;4945231;28;20563;-38
2023/07/03 03:38:28;;;;;;;11.80;4.88;;;;;;;;;;4945716;28;20035;-39
2023/07/03 03:40:57;;;;;;;12.50;6.13;;;;;;;;;;4965051;28;20058;-38
2023/07/03 03:43:23;;;;;;;12.07;4.15;;;;;;;;;;4967369;28;20023;-39
2023/07/03 03:45:58;;;;;;;12.88;4.07;;;;;;;;;;4955151;28;20032;-39
2023/07/03 03:48:25;;;;;;;9.43;3.70;;;;;;;;;;4960952;28;20030;-39
2023/07/03 03:50:50;;;;;;;10.02;3.65;;;;;;;;;;4965180;28;20476;-39
2023/07/03 03:53:16;;;;;;;8.90;4.40;;;;;;;;;;4956808;28;20073;-39
2023/07/03 03:55:41;;;;;;;10.75;3.72;;;;;;;;;;4963769;28;20026;-39
2023/07/03 03:58:07;;;;;;;11.80;4.85;;;;;;;;;;4954955;28;20039;-38
2023/07/03 04:00:32;;;;;;;8.13;4.15;;;;;;;;;;4976611;28;20069;-39
2023/07/03 04:02:58;;;;;;;14.55;4.75;;;;;;;;;;4956845;28;20034;-39
2023/07/03 04:05:23;;;;;;;10.02;4.18;;;;;;;;;;4962410;28;20132;-39
2023/07/03 04:07:48;;;;;;;8.90;3.95;;;;;;;;;;4959236;28;20547;-39
2023/07/03 04:10:14;;;;;;;12.25;5.13;;;;;;;;;;4961531;28;20030;-38
2023/07/03 04:12:39;;;;;;;11.82;4.30;;;;;;;;;;4955811;28;20028;-39
2023/07/03 04:15:05;;;;;;;7.40;2.80;;;;;;;;;;4966944;28;20026;-39
2023/07/03 04:17:30;;;;;;;8.30;3.58;;;;;;;;;;4953619;28;20030;-38
2023/07/03 04:19:56;;;;;;;13.50;5.50;;;;;;;;;;4950034;28;20037;-39
2023/07/03 04:22:21;;;;;;;10.88;4.03;;;;;;;;;;4972456;28;20022;-39
2023/07/03 04:24:47;;;;;;;9.20;3.67;;;;;;;;;;4946685;28;20591;-39
2023/07/03 04:27:14;;;;;;;10.05;3.90;;;;;;;;;;4957964;28;20023;-39
2023/07/03 04:29:40;;;;;;;12.52;4.45;;;;;;;;;;4969042;28;20050;-39
2023/07/03 04:32:05;;;;;;;11.32;4.55;;;;;;;;;;4969318;28;20019;-38
2023/07/03 04:34:31;;;;;;;11.98;3.88;;;;;;;;;;4963624;28;20023;-38
2023/07/03 04:36:56;;;;;;;12.20;4.63;;;;;;;;;;4969112;28;20436;-39
2023/07/03 04:39:23;;;;;;;14.40;4.32;;;;;;;;;;4963869;28;20015;-38
2023/07/03 04:41:48;;;;;;;10.27;4.05;;;;;;;;;;4962293;28;20030;-39
2023/07/03 04:44:14;;;;;;;15.48;4.18;;;;;;;;;;4956983;28;20437;-39
2023/07/03 04:46:39;;;;;;;9.25;4.38;;;;;;;;;;4952860;28;20049;-38
2023/07/03 04:49:05;;;;;;;10.70;4.10;;;;;;;;;;4951327;28;20460;-39
2023/07/03 04:51:32;;;;;;;10.90;4.82;;;;;;;;;;4951109;28;20118;-39
2023/07/03 04:53:58;;;;;;;10.55;4.05;;;;;;;;;;4975594;28;20038;-39
2023/07/03 04:56:24;;;;;;;12.18;4.80;;;;;;;;;;4948698;28;20093;-39
2023/07/03 04:58:51;;;;;;;11.25;3.90;;;;;;;;;;4964193;28;20022;-39
2023/07/03 05:01:16;;;;;;;10.38;4.20;;;;;;;;;;4962379;28;20026;-39
2023/07/03 05:03:42;;;;;;;11.38;4.07;;;;;;;;;;4959588;28;20375;-38
2023/07/03 05:06:07;;;;;;;13.82;4.78;;;;;;;;;;4951263;28;20025;-39
2023/07/03 05:08:33;;;;;;;15.57;5.38;;;;;;;;;;4952386;28;20038;-39
2023/07/03 05:10:59;;;;;;;13.68;4.57;;;;;;;;;;4942078;28;20082;-39
2023/07/03 05:13:25;;;;;;;11.57;3.97;;;;;;;;;;4958420;28;20026;-39
2023/07/03 05:15:51;;;;;;;6.30;2.20;;;;;;;;;;4960132;28;20030;-40
2023/07/03 05:18:16;;;;;;;8.68;4.18;;;;;;;;;;4953677;28;20054;-39
2023/07/03 05:20:44;;;;;;;10.18;3.95;;;;;;;;;;4950430;28;20065;-38
2023/07/03 05:23:09;;;;;;;15.23;4.15;;;;;;;;;;4959852;28;20061;-38
2023/07/03 05:25:34;;;;;;;14.40;4.40;;;;;;;;;;4975989;28;20420;-39
2023/07/03 05:28:00;;;;;;;13.82;4.28;;;;;;;;;;4949674;28;20137;-39
2023/07/03 05:30:25;;;;;;;15.52;4.93;;;;;;;;;;4944306;28;20019;-39
2023/07/03 05:32:51;;;;;;;12.27;4.10;;;;;;;;;;4965955;28;20473;-39
2023/07/03 05:35:16;;;;;;;10.13;4.80;;;;;;;;;;4951302;28;20022;-38
2023/07/03 05:37:41;;;;;;;10.52;4.38;;;;;;;;;;4966484;28;20030;-39
2023/07/03 05:40:07;;;;;;;9.80;4.70;;;;;;;;;;4958570;28;20035;-39
2023/07/03 05:42:32;;;;;;;10.40;4.25;;;;;;;;;;4951933;28;20477;-39
2023/07/03 05:44:58;;;;;;;13.15;4.40;;;;;;;;;;4957150;28;20080;-38
2023/07/03 05:47:23;;;;;;;12.82;4.45;;;;;;;;;;4967663;28;20022;-39
2023/07/03 05:49:49;;;;;;;12.63;3.72;;;;;;;;;;4934977;28;20054;-40
2023/07/03 05:52:14;;;;;;;12.88;5.05;;;;;;;;;;4928570;28;20094;-39
2023/07/03 05:54:40;;;;;;;14.73;4.88;;;;;;;;;;4963127;28;20069;-39
2023/07/03 05:57:07;;;;;;;11.93;4.47;;;;;;;;;;4954714;28;20637;-39
2023/07/03 05:59:33;;;;;;;15.82;4.63;;;;;;;;;;4958272;28;20026;-39
2023/07/03 06:01:58;;;;;;;9.23;3.53;;;;;;;;;;4954786;28;20040;-39
2023/07/03 06:04:24;;;;;;;10.68;4.28;;;;;;;;;;4958950;28;20039;-39
2023/07/03 06:06:55;;;;;;;12.10;4.32;;;;;;;;;;4958401;28;20042;-39
2023/07/03 06:09:21;;;;;;;12.55;4.03;;;;;;;;;;4960307;28;20025;-39
2023/07/03 06:11:46;;;;;;;11.13;4.40;;;;;;;;;;4960219;28;20030;-39
2023/07/03 06:14:12;;;;;;;13.07;4.65;;;;;;;;;;4952014;28;20022;-39
2023/07/03 06:16:39;;;;;;;13.30;4.65;;;;;;;;;;4958339;28;20037;-38
2023/07/03 06:19:04;;;;;;;9.60;4.30;;;;;;;;;;4946593;28;20039;-39
2023/07/03 06:21:30;;;;;;;11.57;3.95;;;;;;;;;;4954401;28;20038;-39
2023/07/03 06:23:55;;;;;;;9.52;4.10;;;;;;;;;;4956307;28;20066;-40
2023/07/03 06:26:20;;;;;;;16.13;4.30;;;;;;;;;;4966356;28;20022;-39
2023/07/03 06:28:46;;;;;;;15.80;4.95;;;;;;;;;;4957160;28;20034;-39
2023/07/03 06:31:11;;;;;;;13.63;4.40;;;;;;;;;;4954250;28;20125;-39
2023/07/03 06:33:37;;;;;;;15.02;4.68;;;;;;;;;;4945533;28;20034;-40
2023/07/03 06:36:02;;;;;;;13.77;5.13;;;;;;;;;;4945929;28;20054;-39
2023/07/03 06:38:28;;;;;;;10.30;5.47;;;;;;;;;;4949019;28;20057;-38
2023/07/03 06:40:57;;;;;;;12.93;5.32;;;;;;;;;;4964687;28;20489;-39
2023/07/03 06:43:23;;;;;;;13.77;4.18;;;;;;;;;;4944548;28;20027;-39
2023/07/03 06:45:48;;;;;;;15.57;4.82;;;;;;;;;;4951245;28;20093;-39
2023/07/03 06:48:15;;;;;;;10.10;4.53;;;;;;;;;;4935074;28;20058;-39
2023/07/03 06:50:40;;;;;;;12.38;4.57;;;;;;;;;;4936046;28;20030;-38
2023/07/03 06:53:06;;;;;;;12.00;4.82;;;;;;;;;;4941796;28;20089;-40
2023/07/03 06:55:31;;;;;;;11.80;5.00;;;;;;;;;;4955022;28;20045;-39
2023/07/03 06:57:58;;;;;;;10.38;4.35;;;;;;;;;;4939664;28;20039;-40
2023/07/03 07:00:24;;;;;;;15.77;4.88;;;;;;;;;;4938663;28;20030;-39
2023/07/03 07:02:49;;;;;;;7.47;2.70;;;;;;;;;;4951914;28;20496;-39
2023/07/03 07:05:15;;;;;;;10.80;3.97;;;;;;;;;;4946870;28;20083;-39
2023/07/03 07:07:40;;;;;;;12.80;5.30;;;;;;;;;;4959340;28;20030;-39
2023/07/03 07:10:06;;;;;;;12.95;5.38;;;;;;;;;;4938019;28;20038;-39
2023/07/03 07:12:31;;;;;;;9.90;4.22;;;;;;;;;;4938803;28;20031;-39
2023/07/03 07:14:56;;;;;;;13.30;4.18;;;;;;;;;;4946917;28;20035;-39
2023/07/03 07:17:22;;;;;;;12.02;4.05;;;;;;;;;;4942985;28;20026;-38
2023/07/03 07:19:47;;;;;;;10.73;4.45;;;;;;;;;;4932338;28;20138;-39
2023/07/03 07:22:13;;;;;;;13.82;3.88;;;;;;;;;;4976436;28;20056;-40
2023/07/03 07:24:38;;;;;;;10.38;3.83;;;;;;;;;;4943271;28;21090;-39
2023/07/03 07:27:04;;;;;;;13.75;5.00;;;;;;;;;;4959727;28;20109;-39
2023/07/03 07:29:30;;;;;;;11.45;4.70;;;;;;;;;;4944275;28;20501;-39
2023/07/03 07:31:56;;;;;;;12.50;4.85;;;;;;;;;;4968722;28;20069;-39
2023/07/03 07:34:21;;;;;;;9.30;3.78;;;;;;;;;;4950731;28;20064;-39
2023/07/03 07:36:47;;;;;;;12.65;4.30;;;;;;;;;;4957730;28;20030;-38
2023/07/03 07:39:13;;;;;;;15.23;4.00;;;;;;;;;;4958924;28;20031;-39
2023/07/03 07:41:39;;;;;;;14.20;4.20;;;;;;;;;;4946530;28;20030;-39
2023/07/03 07:44:05;;;;;;;10.30;3.97;;;;;;;;;;4943666;28;20045;-39
2023/07/03 07:46:31;;;;;;;15.25;4.30;;;;;;;;;;4955142;28;20533;-40
2023/07/03 07:48:57;;;;;;;16.10;4.47;;;;;;;;;;4943948;28;20089;-39
2023/07/03 07:51:24;;;;;;;16.80;5.07;;;;;;;;;;4942812;28;20076;-39
2023/07/03 07:53:49;;;;;;;11.15;4.25;;;;;;;;;;4952208;28;20982;-39
2023/07/03 07:56:15;;;;;;;15.68;5.13;;;;;;;;;;4944232;28;20034;-39
2023/07/03 07:58:40;;;;;;;11.95;4.10;;;;;;;;;;4954230;28;20126;-39
2023/07/03 08:01:06;;;;;;;10.48;4.18;;;;;;;;;;4954812;28;20027;-39
2023/07/03 08:03:31;;;;;;;14.15;4.57;;;;;;;;;;4946771;28;20034;-40
2023/07/03 08:06:00;;;;;;;11.27;4.22;;;;;;;;;;4951893;28;20476;-39
2023/07/03 08:08:26;;;;;;;13.23;4.63;;;;;;;;;;4958500;28;20030;-39
2023/07/03 08:10:55;;;;;;;12.65;4.28;;;;;;;;;;4962693;28;20042;-39
2023/07/03 08:13:21;;;;;;;10.40;4.50;;;;;;;;;;4961085;28;20092;-40
2023/07/03 08:15:47;;;;;;;16.63;3.55;;;;;;;;;;4948666;28;20432;-40
2023/07/03 08:18:14;;;;;;;10.43;3.67;;;;;;;;;;4964160;28;20097;-39
2023/07/03 08:20:40;;;;;;;10.55;3.30;;;;;;;;;;4961714;28;20026;-38
2023/07/03 08:23:05;;;;;;;12.77;4.55;;;;;;;;;;4964451;28;20481;-40
2023/07/03 08:25:31;;;;;;;10.85;3.97;;;;;;;;;;4948472;28;20064;-38
2023/07/03 08:27:56;;;;;;;10.30;3.30;;;;;;;;;;4952179;28;20027;-39
2023/07/03 08:30:22;;;;;;;14.75;4.15;;;;;;;;;;4944904;28;20053;-40
2023/07/03 08:32:48;;;;;;;10.88;4.22;;;;;;;;;;4945312;28;20031;-39
2023/07/03 08:35:13;;;;;;;8.18;3.03;;;;;;;;;;4949288;28;20380;-39
2023/07/03 08:37:39;;;;;;;8.35;3.40;;;;;;;;;;4958989;28;20117;-39
2023/07/03 08:40:05;;;;;;;10.32;4.25;;;;;;;;;;4947923;28;20389;-39
2023/07/03 08:43:00;;;;;;;15.07;3.47;;;;;;;;;;4960888;28;20034;-39
2023/07/03 08:45:29;;;;;;;11.30;3.97;;;;;;;;;;4963024;28;20045;-39
2023/07/03 08:47:55;;;;;;;8.60;3.08;;;;;;;;;;4965302;28;20181;-39
2023/07/03 08:50:21;;;;;;;11.98;3.72;;;;;;;;;;4961378;28;20530;-40
2023/07/03 08:52:58;;;;;;;8.38;3.60;;;;;;;;;;4958912;28;20034;-40
2023/07/03 08:55:24;;;;;;;8.50;2.63;;;;;;;;;;4953690;28;20108;-38
2023/07/03 08:57:50;;;;;;;13.73;2.85;;;;;;;;;;4946869;28;20038;-38
2023/07/03 09:00:16;;;;;;;10.75;2.75;;;;;;;;;;4950013;28;20026;-39
2023/07/03 09:02:49;;;;;;;14.27;2.90;;;;;;;;;;4956461;28;20062;-39
2023/07/03 09:05:33;;;;;;;12.07;3.70;;;;;;;;;;4964064;28;20030;-38
2023/07/03 09:08:01;;;;;;;8.80;2.53;;;;;;;;;;4968581;28;20042;-39
2023/07/03 09:10:27;;;;;;;7.50;2.33;;;;;;;;;;4962447;28;20021;-39
2023/07/03 09:13:16;;;;;;;16.00;4.00;;;;;;;;;;4958239;28;20018;-39
2023/07/03 09:15:50;;;;;;;4.97;2.60;;;;;;;;;;4938155;28;20121;-38
2023/07/03 09:18:17;;;;;;;9.30;2.72;;;;;;;;;;4942114;28;20026;-38
2023/07/03 09:20:43;;;;;;;9.82;2.58;;;;;;;;;;4959873;28;20030;-39
2023/07/03 09:23:14;;;;;;;7.75;2.90;;;;;;;;;;4950393;28;20026;-39
2023/07/03 09:25:47;;;;;;;6.00;2.55;;;;;;;;;;4962621;28;20556;-39
2023/07/03 09:28:13;;;;;;;8.77;3.08;;;;;;;;;;4958007;28;20441;-39
2023/07/03 09:30:38;;;;;;;6.22;2.03;;;;;;;;;;4943197;28;20030;-39
2023/07/03 09:33:06;;;;;;;7.53;1.90;;;;;;;;;;4964934;28;20023;-40
2023/07/03 09:35:35;;;;;;;9.05;2.22;;;;;;;;;;4963301;28;20027;-39
2023/07/03 09:38:01;;;;;;;6.82;2.30;;;;;;;;;;4965219;28;20030;-38
2023/07/03 09:40:31;;;;;;;9.75;2.45;;;;;;;;;;4966132;28;20039;-40
2023/07/03 09:42:56;;;;;;;7.55;3.05;;;;;;;;;;4963584;28;20034;-39
2023/07/03 09:45:23;;;;;;;7.57;2.55;;;;;;;;;;4951956;28;20078;-39
2023/07/03 09:47:55;;;;;;;8.20;2.95;;;;;;;;;;4950527;28;20037;-39
2023/07/03 09:50:23;;;;;;;16.95;3.20;;;;;;;;;;4964960;28;20022;-39
2023/07/03 09:52:53;;;;;;;6.65;2.80;;;;;;;;;;4966642;28;20485;-39
2023/07/03 09:55:19;;;;;;;7.57;2.38;;;;;;;;;;4964074;28;21275;-39
2023/07/03 09:57:44;;;;;;;8.45;2.25;;;;;;;;;;4964451;28;20038;-39
2023/07/03 10:00:21;;;;;;;9.93;3.38;;;;;;;;;;4933987;28;20026;-39
2023/07/03 10:02:50;;;;;;;8.07;2.65;;;;;;;;;;4958376;28;20060;-39
2023/07/03 10:05:18;;;;;;;14.85;4.05;;;;;;;;;;4949909;28;20022;-39
2023/07/03 10:07:44;;;;;;;11.80;3.40;;;;;;;;;;4952599;28;20084;-39
2023/07/03 10:10:13;;;;;;;9.82;2.83;;;;;;;;;;4956027;28;20018;-40
2023/07/03 10:12:58;;;;;;;7.47;2.70;;;;;;;;;;4955752;28;20041;-39
2023/07/03 10:15:26;;;;;;;11.52;3.80;;;;;;;;;;4951219;28;20032;-39
2023/07/03 10:17:56;;;;;;;8.65;3.30;;;;;;;;;;4968552;28;20109;-39
2023/07/03 10:20:24;;;;;;;17.90;3.40;;;;;;;;;;4949581;28;20481;-38
2023/07/03 10:22:51;;;;;;;9.63;3.42;;;;;;;;;;4951570;28;20038;-39
2023/07/03 10:25:18;;;;;;;10.13;3.20;;;;;;;;;;4962582;28;20621;-38
2023/07/03 10:27:45;;;;;;;10.13;3.45;;;;;;;;;;4964574;28;20026;-39
2023/07/03 10:30:15;;;;;;;10.10;2.95;;;;;;;;;;4955419;28;21050;-39
2023/07/03 10:32:40;;;;;;;14.77;3.60;;;;;;;;;;4944184;28;20027;-39
2023/07/03 10:35:09;;;;;;;8.95;3.08;;;;;;;;;;4955439;28;20027;-40
2023/07/03 10:37:40;;;;;;;6.57;2.80;;;;;;;;;;4967160;28;20049;-39
2023/07/03 10:40:12;;;;;;;9.18;2.80;;;;;;;;;;4957367;28;20164;-41
2023/07/03 10:42:55;;;;;;;9.93;2.78;;;;;;;;;;4967118;28;20021;-39
2023/07/03 10:45:21;;;;;;;10.52;2.80;;;;;;;;;;4975030;28;20049;-39
2023/07/03 10:47:54;;;;;;;8.52;2.92;;;;;;;;;;4963252;28;20058;-39
2023/07/03 10:50:26;;;;;;;7.68;2.80;;;;;;;;;;4957638;28;20029;-39
2023/07/03 10:53:04;;;;;;;11.20;3.70;;;;;;;;;;4956255;28;20022;-39
2023/07/03 10:55:49;;;;;;;9.32;3.13;;;;;;;;;;4963872;28;20030;-39
2023/07/03 10:58:19;;;;;;;8.40;2.85;;;;;;;;;;4963258;28;20176;-39
2023/07/03 11:00:46;;;;;;;7.00;3.38;;;;;;;;;;4960487;28;20038;-39
2023/07/03 11:03:31;;;;;;;9.10;2.85;;;;;;;;;;4958375;28;20034;-39
2023/07/03 11:06:12;;;;;;;10.98;3.00;;;;;;;;;;4924040;28;20117;-39
2023/07/03 11:08:46;;;;;;;9.93;2.53;;;;;;;;;;4974890;28;20382;-39
2023/07/03 11:11:12;;;;;;;10.18;3.08;;;;;;;;;;4972767;28;20495;-39
2023/07/03 11:13:49;;;;;;;8.93;1.95;;;;;;;;;;4962690;28;20472;-39
2023/07/03 11:16:15;;;;;;;11.32;3.03;;;;;;;;;;4948297;28;20048;-39
2023/07/03 11:18:48;;;;;;;9.75;3.05;;;;;;;;;;4953535;28;20038;-39
2023/07/03 11:21:32;;;;;;;8.82;2.67;;;;;;;;;;4962263;28;20469;-39
2023/07/03 11:24:16;;;;;;;9.05;2.67;;;;;;;;;;4961964;28;20076;-39
2023/07/03 11:26:46;;;;;;;11.75;2.20;;;;;;;;;;4975203;28;20041;-40
2023/07/03 11:29:11;;;;;;;11.27;2.25;;;;;;;;;;4968942;28;20019;-39
2023/07/03 11:31:39;;;;;;;9.70;2.63;;;;;;;;;;4961590;28;20034;-38
2023/07/03 11:34:06;;;;;;;13.40;2.63;;;;;;;;;;4946846;28;20035;-39
2023/07/03 11:36:34;;;;;;;14.02;2.50;;;;;;;;;;4957685;28;20023;-39
2023/07/03 11:39:10;;;;;;;11.48;3.10;;;;;;;;;;4964160;28;20030;-39
2023/07/03 11:41:43;;;;;;;9.00;2.30;;;;;;;;;;4974157;28;20066;-40
2023/07/03 11:44:16;;;;;;;7.05;2.30;;;;;;;;;;4943222;28;20039;-39
2023/07/03 11:46:41;;;;;;;9.75;2.58;;;;;;;;;;4955694;28;20847;-39
2023/07/03 11:49:10;;;;;;;7.45;3.05;;;;;;;;;;4965814;28;20547;-39
2023/07/03 11:51:37;;;;;;;15.18;4.00;;;;;;;;;;4949191;28;20095;-40
2023/07/03 11:54:16;;;;;;;10.27;3.05;;;;;;;;;;4951767;28;20041;-39
2023/07/03 11:56:41;;;;;;;6.75;2.40;;;;;;;;;;4958778;28;20393;-39
2023/07/03 11:59:08;;;;;;;12.20;2.27;;;;;;;;;;4961519;28;20481;-39
2023/07/03 12:01:33;;;;;;;7.90;2.97;;;;;;;;;;4965811;28;20129;-39
2023/07/03 12:04:00;;;;;;;10.23;2.70;;;;;;;;;;4951517;28;20105;-39
2023/07/03 12:06:38;;;;;;;8.38;2.53;;;;;;;;;;4960707;28;20034;-39
2023/07/03 12:09:29;;;;;;;9.27;2.58;;;;;;;;;;4953721;28;20084;-40
2023/07/03 12:12:00;;;;;;;10.25;2.97;;;;;;;;;;4961885;28;20402;-39
2023/07/03 12:15:14;;;;;;;10.20;2.70;;;;;;;;;;4965944;28;20034;-39
2023/07/03 12:17:33;;;;;;;8.70;2.45;;;;;;;;;;4974649;28;20085;-39
2023/07/03 12:20:09;;;;;;;10.23;4.28;;;;;;;;;;4968481;28;20500;-40
2023/07/03 12:22:39;;;;;;;9.32;2.33;;;;;;;;;;4965807;28;20035;-39
2023/07/03 12:25:06;;;;;;;8.57;2.30;;;;;;;;;;4966969;28;20026;-39
2023/07/03 12:27:32;;;;;;;9.40;2.80;;;;;;;;;;4968660;28;20820;-40
2023/07/03 12:29:57;;;;;;;9.00;2.30;;;;;;;;;;4952843;28;20125;-40
2023/07/03 12:32:24;;;;;;;7.57;2.05;;;;;;;;;;4954118;28;20069;-39
2023/07/03 12:34:50;;;;;;;8.85;2.28;;;;;;;;;;4948074;28;20109;-40
2023/07/03 12:37:17;;;;;;;7.35;2.60;;;;;;;;;;4953539;28;20213;-39
2023/07/03 12:39:43;;;;;;;11.85;2.50;;;;;;;;;;4946264;28;20049;-39
2023/07/03 12:42:09;;;;;;;11.38;2.65;;;;;;;;;;4964157;28;20034;-39
2023/07/03 12:44:35;;;;;;;11.57;2.75;;;;;;;;;;4948814;28;20038;-39
2023/07/03 12:47:14;;;;;;;11.52;2.20;;;;;;;;;;4952163;28;20023;-39
2023/07/03 12:49:55;;;;;;;7.53;2.95;;;;;;;;;;4963843;28;20512;-39
2023/07/03 12:52:21;;;;;;;12.27;3.40;;;;;;;;;;4965832;28;20097;-39
2023/07/03 12:54:47;;;;;;;9.30;2.58;;;;;;;;;;4963130;28;20039;-39
2023/07/03 12:57:13;;;;;;;8.07;2.28;;;;;;;;;;4968429;28;20028;-39
2023/07/03 12:59:38;;;;;;;9.10;2.53;;;;;;;;;;4965367;28;20042;-39
2023/07/03 13:02:04;;;;;;;12.40;3.03;;;;;;;;;;4961958;28;20722;-39
2023/07/03 13:04:31;;;;;;;9.93;2.53;;;;;;;;;;4954098;28;20073;-39
2023/07/03 13:06:57;;;;;;;9.13;1.95;;;;;;;;;;4964002;28;20029;-39
2023/07/03 13:09:22;;;;;;;8.98;2.83;;;;;;;;;;4949072;28;20381;-39
2023/07/03 13:11:48;;;;;;;9.65;2.33;;;;;;;;;;4964714;28;20085;-39
2023/07/03 13:14:16;;;;;;;7.88;2.47;;;;;;;;;;4952930;28;20113;-41
2023/07/03 13:16:42;;;;;;;10.43;2.80;;;;;;;;;;4961917;28;20030;-40
2023/07/03 13:19:08;;;;;;;10.55;3.38;;;;;;;;;;4962804;28;20027;-39
2023/07/03 13:21:34;;;;;;;9.70;2.55;;;;;;;;;;4969650;28;20033;-39
2023/07/03 13:24:07;;;;;;;8.85;2.53;;;;;;;;;;4968284;28;20026;-40
2023/07/03 13:26:32;;;;;;;8.65;2.58;;;;;;;;;;4964263;28;20097;-39
2023/07/03 13:28:59;;;;;;;12.93;2.40;;;;;;;;;;4961186;28;20022;-40
2023/07/03 13:31:26;;;;;;;9.20;2.33;;;;;;;;;;4961457;28;20045;-40
2023/07/03 13:34:05;;;;;;;16.92;2.75;;;;;;;;;;4968741;28;20472;-39
2023/07/03 13:36:33;;;;;;;10.13;2.80;;;;;;;;;;4968954;28;20121;-39
2023/07/03 13:39:07;;;;;;;11.05;3.30;;;;;;;;;;4960528;28;20445;-39
2023/07/03 13:41:32;;;;;;;10.15;2.28;;;;;;;;;;4973651;28;20150;-39
2023/07/03 13:43:58;;;;;;;11.38;2.83;;;;;;;;;;4952980;28;20519;-39
2023/07/03 13:46:23;;;;;;;17.10;3.17;;;;;;;;;;4961938;28;20385;-40
2023/07/03 13:48:49;;;;;;;12.27;3.35;;;;;;;;;;4952144;28;20035;-39
2023/07/03 13:51:14;;;;;;;10.93;2.83;;;;;;;;;;4948412;28;20018;-40
2023/07/03 13:53:39;;;;;;;10.30;2.90;;;;;;;;;;4953283;28;20401;-39
2023/07/03 13:56:05;;;;;;;15.18;3.33;;;;;;;;;;4957836;28;20288;-39
2023/07/03 13:58:31;;;;;;;13.25;2.80;;;;;;;;;;4944633;28;20420;-39
2023/07/03 14:00:57;;;;;;;10.20;2.83;;;;;;;;;;4953100;28;20454;-39
2023/07/03 14:03:22;;;;;;;12.98;3.22;;;;;;;;;;4951081;28;20058;-39
2023/07/03 14:05:47;;;;;;;8.38;2.30;;;;;;;;;;4967012;28;20482;-39
2023/07/03 14:08:14;;;;;;;8.88;2.72;;;;;;;;;;4964427;28;20444;-39
2023/07/03 14:10:40;;;;;;;13.27;2.85;;;;;;;;;;4958950;28;20031;-39
2023/07/03 14:13:05;;;;;;;17.65;2.50;;;;;;;;;;4952928;28;20096;-39
2023/07/03 14:15:34;;;;;;;10.60;2.95;;;;;;;;;;4960521;28;20477;-39
2023/07/03 14:17:59;;;;;;;10.32;2.25;;;;;;;;;;4959516;28;20031;-39
2023/07/03 14:20:25;;;;;;;13.02;3.08;;;;;;;;;;4951626;28;20486;-40
2023/07/03 14:22:50;;;;;;;11.43;2.40;;;;;;;;;;4940065;28;20221;-40
2023/07/03 14:25:16;;;;;;;10.30;2.47;;;;;;;;;;4945735;28;20057;-39
2023/07/03 14:27:41;;;;;;;14.57;2.67;;;;;;;;;;4966173;28;20402;-40
2023/07/03 14:30:08;;;;;;;10.57;2.67;;;;;;;;;;4964408;28;20081;-39
2023/07/03 14:32:33;;;;;;;9.27;3.13;;;;;;;;;;4958438;28;20014;-40
2023/07/03 14:35:03;;;;;;;12.60;2.50;;;;;;;;;;4960120;28;20380;-40